Time;durP1;ratioP1;P1;durP2;ratioP2;P2;SDS_P1;SDS_P2;PMS_P1;PMS_P2;Temp;Humidity;BMP_temperature;BMP_pressure;BME280_temperature;BME280_humidity;BME280_pressure;Samples;Min_cycle;Max_cycle;Signal;HPM_P1;HPM_P2
2021/12/03 00:01:12;;;;;;;46.50;24.20;;;;;;;3.00;76.00;98952.00;4896128;29;20097;-38
2021/12/03 00:03:38;;;;;;;51.45;25.15;;;;;;;3.06;77.09;98964.44;4896425;29;20036;-38
2021/12/03 00:06:03;;;;;;;49.83;24.15;;;;;;;3.15;76.03;98962.59;4896274;29;20035;-38
2021/12/03 00:08:29;;;;;;;50.63;25.27;;;;;;;2.94;77.19;98966.66;4895156;29;20370;-38
2021/12/03 00:10:59;;;;;;;62.50;25.23;;;;;;;3.09;76.28;98982.50;4895763;29;20049;-38
2021/12/03 00:13:25;;;;;;;49.60;23.75;;;;;;;2.90;76.47;98968.00;4896566;29;20079;-38
2021/12/03 00:15:52;;;;;;;48.58;22.92;;;;;;;2.92;75.70;98966.00;4895993;29;20037;-38
2021/12/03 00:18:17;;;;;;;47.88;23.13;;;;;;;3.18;75.91;98980.63;4895834;29;20071;-38
2021/12/03 00:20:43;;;;;;;47.22;22.75;;;;;;;3.15;75.49;98973.91;4895034;29;20017;-38
2021/12/03 00:23:08;;;;;;;42.22;22.02;;;;;;;2.97;75.55;98971.56;4877319;29;20116;-38
2021/12/03 00:25:34;;;;;;;37.55;19.63;;;;;;;3.03;75.14;98980.56;4877351;29;20088;-38
2021/12/03 00:27:59;;;;;;;34.85;17.67;;;;;;;2.51;75.78;98984.56;4869386;29;20096;-37
2021/12/03 00:30:25;;;;;;;35.40;16.95;;;;;;;2.45;75.72;98980.00;4895799;29;20032;-38
2021/12/03 00:32:50;;;;;;;38.53;17.48;;;;;;;2.46;76.14;98966.72;4895914;29;20043;-37
2021/12/03 00:35:16;;;;;;;34.25;16.83;;;;;;;2.40;76.21;98961.31;4895812;29;20553;-37
2021/12/03 00:37:42;;;;;;;29.85;16.08;;;;;;;2.51;75.17;98966.19;4895622;29;20035;-37
2021/12/03 00:40:11;;;;;;;33.17;17.30;;;;;;;2.84;74.18;98973.94;4895481;29;20547;-37
2021/12/03 00:42:38;;;;;;;30.90;16.58;;;;;;;2.72;74.98;98971.69;4895814;29;20031;-37
2021/12/03 00:45:04;;;;;;;33.63;16.25;;;;;;;2.46;75.07;98990.34;4895625;29;20047;-37
2021/12/03 00:47:30;;;;;;;34.20;17.05;;;;;;;2.39;75.64;98981.50;4895599;29;20311;-37
2021/12/03 00:49:55;;;;;;;34.97;15.90;;;;;;;2.64;75.42;98973.53;4895373;29;20449;-38
2021/12/03 00:52:21;;;;;;;34.85;16.33;;;;;;;2.50;75.93;98975.06;4895448;29;20032;-38
2021/12/03 00:54:47;;;;;;;32.88;17.30;;;;;;;2.55;75.24;98999.00;4895329;29;20108;-38
2021/12/03 00:57:12;;;;;;;34.30;17.30;;;;;;;2.51;75.64;99006.44;4895442;29;20028;-38
2021/12/03 00:59:38;;;;;;;31.10;17.15;;;;;;;2.74;75.32;99003.88;4894933;29;20028;-38
2021/12/03 01:02:04;;;;;;;33.95;17.00;;;;;;;2.40;76.40;98998.06;4895458;29;20029;-39
2021/12/03 01:04:29;;;;;;;33.30;18.25;;;;;;;2.52;75.92;98986.22;4895583;29;20032;-38
2021/12/03 01:06:54;;;;;;;34.53;17.00;;;;;;;2.54;75.23;98979.00;4893960;29;20095;-37
2021/12/03 01:09:21;;;;;;;33.90;17.15;;;;;;;2.16;76.56;98973.53;4894833;29;20032;-38
2021/12/03 01:11:48;;;;;;;36.22;17.83;;;;;;;2.25;75.95;98979.59;4895356;29;20028;-38
2021/12/03 01:14:13;;;;;;;34.78;17.45;;;;;;;2.26;76.27;98974.16;4894908;29;20446;-39
2021/12/03 01:16:39;;;;;;;40.75;18.30;;;;;;;2.44;75.83;98973.13;4894641;29;20032;-39
2021/12/03 01:19:04;;;;;;;42.40;18.63;;;;;;;2.23;76.26;98965.78;4895318;29;20039;-38
2021/12/03 01:21:30;;;;;;;42.53;19.75;;;;;;;2.30;76.13;98954.47;4895175;29;20628;-39
2021/12/03 01:23:55;;;;;;;36.45;19.02;;;;;;;2.44;76.49;98941.63;4895516;29;20028;-37
2021/12/03 01:26:21;;;;;;;34.03;18.25;;;;;;;2.33;76.18;98940.97;4895361;29;20028;-38
2021/12/03 01:28:47;;;;;;;39.83;19.75;;;;;;;2.32;75.96;98923.59;4895004;29;20482;-39
2021/12/03 01:31:12;;;;;;;35.08;18.67;;;;;;;2.46;75.61;98934.38;4895028;29;20036;-39
2021/12/03 01:33:38;;;;;;;38.88;21.00;;;;;;;2.57;74.57;98925.28;4895156;29;20497;-38
2021/12/03 01:36:03;;;;;;;40.70;20.48;;;;;;;2.60;74.60;98925.75;4893801;29;20490;-39
2021/12/03 01:38:29;;;;;;;40.53;20.55;;;;;;;2.45;75.91;98943.25;4895267;29;20448;-38
2021/12/03 01:40:55;;;;;;;37.45;19.02;;;;;;;2.51;74.46;98953.06;4909123;29;20040;-39
2021/12/03 01:43:23;;;;;;;43.40;20.73;;;;;;;2.50;75.62;98949.63;4895272;29;20073;-40
2021/12/03 01:45:48;;;;;;;41.65;21.00;;;;;;;2.44;74.92;98949.50;4893896;29;20047;-39
2021/12/03 01:48:14;;;;;;;38.40;20.13;;;;;;;2.27;76.10;98946.91;4894886;29;20032;-38
2021/12/03 01:50:41;;;;;;;45.28;20.55;;;;;;;2.35;75.32;98952.13;4894831;29;20029;-38
2021/12/03 01:53:07;;;;;;;45.03;22.95;;;;;;;2.24;76.39;98938.56;4895110;29;20029;-39
2021/12/03 01:55:33;;;;;;;51.08;25.00;;;;;;;2.47;75.12;98931.56;4894967;29;20055;-38
2021/12/03 01:57:58;;;;;;;45.78;23.33;;;;;;;2.23;75.66;98935.13;4894811;29;20040;-38
2021/12/03 02:00:30;;;;;;;54.30;25.55;;;;;;;2.31;76.56;98929.84;4894835;29;20103;-39
2021/12/03 02:02:56;;;;;;;52.38;23.10;;;;;;;2.73;74.26;98925.22;4894381;29;20044;-38
2021/12/03 02:05:22;;;;;;;46.58;23.92;;;;;;;2.59;74.69;98923.31;4894880;29;20579;-39
2021/12/03 02:07:47;;;;;;;54.75;25.52;;;;;;;2.37;75.74;98907.31;4894718;29;20063;-38
2021/12/03 02:10:13;;;;;;;47.22;22.77;;;;;;;2.15;77.28;98893.13;4894809;29;20358;-38
2021/12/03 02:12:39;;;;;;;43.38;21.23;;;;;;;2.18;76.74;98900.69;4894537;29;20036;-38
2021/12/03 02:15:05;;;;;;;48.47;21.67;;;;;;;2.39;76.68;98902.72;4894474;29;20060;-38
2021/12/03 02:17:30;;;;;;;45.88;22.42;;;;;;;2.04;77.79;98898.78;4894923;29;20130;-39
2021/12/03 02:19:56;;;;;;;42.28;21.50;;;;;;;2.30;77.71;98899.31;4894390;29;20146;-39
2021/12/03 02:22:21;;;;;;;46.22;23.35;;;;;;;2.28;76.87;98905.72;4880624;29;20025;-39
2021/12/03 02:24:47;;;;;;;50.75;23.40;;;;;;;2.34;77.09;98897.16;4898246;29;20080;-38
2021/12/03 02:27:12;;;;;;;52.60;24.80;;;;;;;2.62;76.90;98908.03;4897695;29;20075;-39
2021/12/03 02:29:38;;;;;;;51.13;24.77;;;;;;;2.31;76.43;98924.59;4897997;29;20041;-38
2021/12/03 02:32:04;;;;;;;53.20;24.17;;;;;;;2.52;76.65;98929.25;4898022;29;20064;-38
2021/12/03 02:34:30;;;;;;;49.70;25.35;;;;;;;2.46;76.77;98924.69;4898058;29;20056;-37
2021/12/03 02:36:56;;;;;;;55.28;25.00;;;;;;;2.73;76.12;98917.34;4897953;29;20033;-37
2021/12/03 02:39:21;;;;;;;51.30;24.10;;;;;;;2.23;76.68;98894.91;4881061;29;20032;-37
2021/12/03 02:41:47;;;;;;;117.45;27.83;;;;;;;2.48;76.97;98919.28;4897656;29;20032;-37
2021/12/03 02:44:12;;;;;;;73.28;26.88;;;;;;;2.55;76.94;98917.56;4897567;29;20472;-37
2021/12/03 02:46:38;;;;;;;56.75;26.17;;;;;;;2.43;77.64;98919.78;4897989;29;20032;-37
2021/12/03 02:49:05;;;;;;;48.00;23.63;;;;;;;2.47;77.06;98909.75;4897592;29;20092;-37
2021/12/03 02:51:30;;;;;;;49.72;24.85;;;;;;;2.58;76.84;98925.13;4897483;29;20037;-37
2021/12/03 02:53:56;;;;;;;49.47;23.33;;;;;;;2.46;76.94;98897.63;4897334;29;20039;-38
2021/12/03 02:56:21;;;;;;;48.10;23.02;;;;;;;2.50;77.11;98896.28;4880532;29;20460;-38
2021/12/03 02:58:47;;;;;;;46.92;23.85;;;;;;;2.65;76.61;98880.59;4897621;29;20502;-37
2021/12/03 03:01:12;;;;;;;45.20;23.27;;;;;;;2.66;77.10;98890.91;4897564;29;20146;-38
2021/12/03 03:03:38;;;;;;;40.63;20.92;;;;;;;2.61;77.14;98895.06;4897234;29;20047;-38
2021/12/03 03:06:04;;;;;;;42.55;20.90;;;;;;;2.71;75.89;98898.28;4896213;29;20036;-38
2021/12/03 03:08:29;;;;;;;42.45;20.98;;;;;;;2.74;76.35;98901.41;4897342;29;20482;-38
2021/12/03 03:10:55;;;;;;;40.30;21.50;;;;;;;2.67;77.15;98900.44;4897185;29;20040;-38
2021/12/03 03:13:21;;;;;;;35.63;19.38;;;;;;;2.88;75.95;98904.28;4897181;29;20094;-38
2021/12/03 03:15:46;;;;;;;44.67;23.00;;;;;;;2.83;75.90;98917.91;4897021;29;20089;-38
2021/12/03 03:18:17;;;;;;;50.83;24.58;;;;;;;3.03;75.01;98914.84;4897067;29;20033;-38
2021/12/03 03:20:43;;;;;;;49.17;23.85;;;;;;;2.84;75.63;98900.34;4880670;29;20035;-38
2021/12/03 03:23:09;;;;;;;47.72;23.08;;;;;;;2.61;76.21;98890.63;4897064;29;20032;-38
2021/12/03 03:25:35;;;;;;;41.10;21.88;;;;;;;2.61;76.58;98906.41;4897023;29;20032;-38
2021/12/03 03:28:00;;;;;;;48.25;22.85;;;;;;;2.54;76.94;98919.38;4879991;29;20570;-38
2021/12/03 03:30:26;;;;;;;46.20;22.60;;;;;;;2.45;77.78;98924.84;4880405;29;20142;-38
2021/12/03 03:32:51;;;;;;;48.05;22.02;;;;;;;2.38;77.55;98882.72;4895034;29;20124;-38
2021/12/03 03:35:17;;;;;;;43.10;22.00;;;;;;;2.56;77.32;98913.97;4864582;29;20123;-38
2021/12/03 03:37:42;;;;;;;40.00;20.25;;;;;;;2.65;78.04;98925.25;4897112;29;20500;-38
2021/12/03 03:40:09;;;;;;;41.67;21.42;;;;;;;2.42;78.30;98899.75;4896683;29;20154;-38
2021/12/03 03:42:34;;;;;;;41.70;20.65;;;;;;;2.63;77.72;98890.47;4896869;29;20092;-38
2021/12/03 03:45:01;;;;;;;44.17;21.05;;;;;;;2.64;76.54;98886.84;4896589;29;20035;-38
2021/12/03 03:47:27;;;;;;;48.15;23.65;;;;;;;2.52;77.96;98889.03;4896791;29;20468;-38
2021/12/03 03:49:52;;;;;;;49.28;25.38;;;;;;;2.62;76.70;98876.50;4896699;29;20040;-37
2021/12/03 03:52:18;;;;;;;53.00;24.00;;;;;;;2.61;77.32;98901.16;4896283;29;20036;-37
2021/12/03 03:54:43;;;;;;;48.90;24.20;;;;;;;2.49;77.34;98910.38;4896643;29;20028;-38
2021/12/03 03:57:09;;;;;;;52.75;26.08;;;;;;;2.52;77.31;98912.69;4896546;29;20032;-37
2021/12/03 03:59:34;;;;;;;53.42;26.48;;;;;;;2.48;77.90;98911.38;4895116;29;20052;-37
2021/12/03 04:02:00;;;;;;;53.13;25.63;;;;;;;2.89;76.02;98908.53;4896252;29;20044;-39
2021/12/03 04:04:25;;;;;;;54.20;26.88;;;;;;;2.89;75.39;98919.03;4896322;29;20033;-39
2021/12/03 04:06:51;;;;;;;52.72;25.70;;;;;;;2.78;76.72;98908.91;4896185;29;20465;-40
2021/12/03 04:09:17;;;;;;;58.38;27.27;;;;;;;2.52;77.02;98892.47;4896131;29;20028;-40
2021/12/03 04:11:43;;;;;;;58.05;25.70;;;;;;;2.46;77.69;98900.25;4896193;29;20097;-40
2021/12/03 04:14:08;;;;;;;50.85;24.88;;;;;;;2.67;76.75;98933.78;4896128;29;20392;-37
2021/12/03 04:16:33;;;;;;;55.80;27.48;;;;;;;2.50;76.86;98914.66;4894595;29;20065;-37
2021/12/03 04:18:59;;;;;;;51.83;27.02;;;;;;;2.51;78.38;98914.50;4896033;29;20358;-37
2021/12/03 04:21:24;;;;;;;54.20;26.23;;;;;;;2.64;76.82;98907.84;4895983;29;20025;-38
2021/12/03 04:23:50;;;;;;;57.42;27.00;;;;;;;2.86;76.55;98908.88;4895712;29;20140;-38
2021/12/03 04:26:16;;;;;;;48.92;25.80;;;;;;;2.57;77.43;98907.75;4896042;29;20091;-39
2021/12/03 04:28:41;;;;;;;53.13;26.08;;;;;;;2.70;77.70;98915.88;4896319;29;20044;-38
2021/12/03 04:31:07;;;;;;;54.63;26.23;;;;;;;2.82;77.16;98912.81;4896049;29;20462;-38
2021/12/03 04:33:32;;;;;;;51.17;25.40;;;;;;;2.62;77.71;98907.22;4895793;29;20040;-39
2021/12/03 04:35:58;;;;;;;54.80;25.40;;;;;;;2.70;77.98;98897.47;4896264;29;20067;-40
2021/12/03 04:38:23;;;;;;;48.75;24.77;;;;;;;2.65;77.23;98901.63;4895639;29;20540;-40
2021/12/03 04:40:49;;;;;;;53.70;26.25;;;;;;;2.60;78.11;98917.06;4895731;29;20036;-39
2021/12/03 04:43:14;;;;;;;60.75;28.13;;;;;;;2.66;77.85;98921.63;4895591;29;20028;-39
2021/12/03 04:45:40;;;;;;;53.00;26.95;;;;;;;2.89;76.83;98908.53;4894659;29;20092;-39
2021/12/03 04:48:06;;;;;;;56.30;27.25;;;;;;;2.81;76.35;98917.28;4895631;29;20490;-39
2021/12/03 04:50:34;;;;;;;52.42;27.88;;;;;;;2.74;77.65;98911.91;4895443;29;20079;-38
2021/12/03 04:52:59;;;;;;;62.50;28.98;;;;;;;2.82;77.68;98897.91;4895131;29;20119;-38
2021/12/03 04:55:25;;;;;;;52.10;26.50;;;;;;;2.79;77.40;98924.50;4895308;29;20394;-38
2021/12/03 04:57:53;;;;;;;56.00;27.05;;;;;;;2.71;78.06;98919.31;4878242;29;20029;-38
2021/12/03 05:00:21;;;;;;;49.50;26.05;;;;;;;2.63;78.94;98912.28;4895215;29;20048;-38
2021/12/03 05:02:47;;;;;;;73.65;38.03;;;;;;;2.90;78.99;98928.56;4895010;29;20036;-38
2021/12/03 05:05:12;;;;;;;80.03;39.10;;;;;;;2.81;77.94;98934.84;4894471;29;20025;-38
2021/12/03 05:10:04;;;;;;;59.83;29.42;;;;;;;2.88;78.19;98930.56;4894969;29;20029;-38
2021/12/03 05:12:30;;;;;;;72.00;33.88;;;;;;;3.03;76.88;98941.94;4895319;29;20111;-39
2021/12/03 05:14:55;;;;;;;87.13;41.65;;;;;;;3.02;77.39;98952.63;4894988;29;20059;-39
2021/12/03 05:17:21;;;;;;;65.07;30.17;;;;;;;7.21;76.29;98940.25;4894813;29;20047;-41
2021/12/03 05:19:47;;;;;;;81.63;35.40;;;;;;;6.15;65.13;98937.22;4894732;29;20032;-38
2021/12/03 05:22:13;;;;;;;68.85;33.85;;;;;;;5.49;67.88;98952.34;4894924;29;20040;-38
2021/12/03 05:24:38;;;;;;;71.72;33.72;;;;;;;4.72;68.98;98937.16;4880970;29;20047;-38
2021/12/03 05:27:04;;;;;;;95.45;42.80;;;;;;;4.11;72.53;98964.56;4877738;29;20033;-39
2021/12/03 05:29:29;;;;;;;51.47;26.15;;;;;;;4.08;77.23;98972.00;4894450;29;20254;-38
2021/12/03 05:31:55;;;;;;;45.70;23.08;;;;;;;3.77;72.77;98953.69;4894370;29;20033;-38
2021/12/03 05:34:20;;;;;;;45.28;22.10;;;;;;;3.72;74.26;98989.28;4894041;29;20088;-38
2021/12/03 05:36:46;;;;;;;38.35;19.65;;;;;;;3.67;72.82;98970.56;4884290;29;20036;-39
2021/12/03 05:39:12;;;;;;;35.53;18.60;;;;;;;3.13;73.56;98949.59;4876508;29;20101;-38
2021/12/03 05:41:37;;;;;;;41.33;19.67;;;;;;;3.36;75.02;98969.84;4876428;29;20025;-38
2021/12/03 05:44:03;;;;;;;35.20;19.17;;;;;;;3.29;75.32;98957.41;4875930;29;20164;-38
2021/12/03 05:46:29;;;;;;;35.20;18.17;;;;;;;3.22;74.90;98960.88;4876153;29;20040;-38
2021/12/03 05:48:54;;;;;;;39.22;17.80;;;;;;;3.33;74.02;98945.53;4874589;29;20037;-39
2021/12/03 05:51:20;;;;;;;36.38;17.55;;;;;;;3.31;73.64;98930.91;4874928;29;20139;-38
2021/12/03 05:53:45;;;;;;;33.00;17.92;;;;;;;3.38;73.06;98971.28;4873893;29;20522;-39
2021/12/03 05:56:11;;;;;;;35.22;18.90;;;;;;;3.05;75.32;98971.50;4875548;29;20048;-37
2021/12/03 05:58:36;;;;;;;33.50;18.10;;;;;;;3.47;74.27;98964.97;4877814;29;20033;-37
2021/12/03 06:01:02;;;;;;;41.40;18.70;;;;;;;3.56;74.74;98984.16;4876566;29;20378;-39
2021/12/03 06:03:27;;;;;;;34.10;19.10;;;;;;;3.68;73.92;98985.34;4878051;29;20060;-39
2021/12/03 06:05:53;;;;;;;41.45;19.65;;;;;;;3.84;73.42;98967.78;4880184;29;20635;-39
2021/12/03 06:08:18;;;;;;;39.15;21.05;;;;;;;3.85;73.23;98972.88;4896783;29;20072;-39
2021/12/03 06:10:44;;;;;;;39.67;19.35;;;;;;;3.63;72.75;98990.31;4896467;29;20434;-39
2021/12/03 06:13:10;;;;;;;39.45;18.75;;;;;;;3.62;73.91;98974.75;4897035;29;20473;-41
2021/12/03 06:15:35;;;;;;;39.83;19.52;;;;;;;3.52;73.75;98983.69;4897787;29;20088;-40
2021/12/03 06:18:00;;;;;;;38.03;19.33;;;;;;;3.35;74.30;99000.59;4898123;29;20096;-39
2021/12/03 06:20:27;;;;;;;38.55;18.25;;;;;;;3.35;73.55;98997.13;4897967;29;20087;-39
2021/12/03 06:22:52;;;;;;;31.33;17.35;;;;;;;3.41;74.20;98996.41;4898037;29;20097;-38
2021/12/03 06:25:18;;;;;;;33.50;18.10;;;;;;;3.42;72.32;99025.19;4897111;29;20032;-39
2021/12/03 06:27:43;;;;;;;34.63;17.67;;;;;;;3.35;74.43;99005.84;4897309;29;20035;-38
2021/12/03 06:30:11;;;;;;;33.45;16.92;;;;;;;3.52;75.77;99022.31;4897320;29;20044;-40
2021/12/03 06:32:36;;;;;;;50.47;21.40;;;;;;;3.35;72.34;98963.78;4880542;29;20107;-38
2021/12/03 06:35:03;;;;;;;38.88;19.25;;;;;;;3.75;73.03;98989.91;4897736;29;20064;-39
2021/12/03 06:37:28;;;;;;;42.30;18.73;;;;;;;3.75;73.08;98997.81;4898109;29;20112;-40
2021/12/03 06:39:54;;;;;;;35.65;17.98;;;;;;;3.61;73.68;98988.88;4896351;29;20379;-39
2021/12/03 06:42:19;;;;;;;40.08;18.95;;;;;;;3.84;72.63;99015.97;4897631;29;20039;-38
2021/12/03 06:44:44;;;;;;;50.78;25.10;;;;;;;3.92;72.74;98986.97;4897575;29;20409;-38
2021/12/03 06:47:10;;;;;;;101.82;44.03;;;;;;;4.06;72.57;99014.31;4897437;29;20032;-39
2021/12/03 06:49:35;;;;;;;40.67;20.48;;;;;;;3.96;72.39;99011.13;4897382;29;20044;-40
2021/12/03 06:52:05;;;;;;;39.55;20.13;;;;;;;3.79;73.13;99026.25;4897614;29;20484;-38
2021/12/03 06:54:33;;;;;;;42.22;20.95;;;;;;;4.16;72.57;99024.59;4897475;29;20028;-39
2021/12/03 06:56:59;;;;;;;43.30;21.50;;;;;;;4.39;72.67;99019.25;4897524;29;20044;-39
2021/12/03 06:59:24;;;;;;;37.78;19.98;;;;;;;4.41;71.81;99021.69;4897403;29;20107;-39
2021/12/03 07:01:50;;;;;;;34.67;18.23;;;;;;;4.26;71.16;99011.16;4897444;29;20020;-39
2021/12/03 07:04:16;;;;;;;35.70;19.02;;;;;;;4.39;71.41;99021.88;4897349;29;20025;-39
2021/12/03 07:06:42;;;;;;;32.70;16.67;;;;;;;4.41;70.77;99030.41;4895466;29;20040;-40
2021/12/03 07:09:07;;;;;;;34.72;17.55;;;;;;;4.40;70.43;99027.97;4896448;29;20159;-39
2021/12/03 07:11:33;;;;;;;35.55;17.40;;;;;;;4.60;70.88;99031.69;4897334;29;20032;-39
2021/12/03 07:13:58;;;;;;;36.75;17.65;;;;;;;4.75;70.53;99036.16;4896681;29;20119;-40
2021/12/03 07:16:24;;;;;;;35.20;19.90;;;;;;;4.64;69.72;99032.16;4897169;29;20231;-39
2021/12/03 07:18:49;;;;;;;32.08;17.20;;;;;;;4.86;70.86;99043.59;4896782;29;20037;-40
2021/12/03 07:21:15;;;;;;;30.55;17.73;;;;;;;4.96;74.70;99067.03;4896855;29;20173;-38
2021/12/03 07:23:40;;;;;;;42.53;21.15;;;;;;;6.74;74.12;99073.38;4897172;29;20434;-39
2021/12/03 07:26:06;;;;;;;29.40;15.60;;;;;;;6.71;70.86;99066.66;4896836;29;20434;-38
2021/12/03 07:28:31;;;;;;;26.23;14.60;;;;;;;7.91;72.45;99048.50;4896637;29;20127;-38
2021/12/03 07:30:57;;;;;;;32.60;17.17;;;;;;;8.76;65.30;99050.50;4879709;29;20039;-38
2021/12/03 07:33:22;;;;;;;64.90;34.63;;;;;;;8.37;59.63;99039.72;4896306;29;20118;-38
2021/12/03 07:35:48;;;;;;;28.95;14.35;;;;;;;8.32;61.30;99041.34;4896440;29;20140;-39
2021/12/03 07:38:15;;;;;;;29.50;15.25;;;;;;;8.21;61.26;99066.66;4896899;29;20153;-40
2021/12/03 07:40:44;;;;;;;24.13;13.52;;;;;;;8.39;60.80;99050.13;4896634;29;20104;-39
2021/12/03 07:43:10;;;;;;;22.85;12.15;;;;;;;9.01;63.63;99034.69;4896652;29;20032;-38
2021/12/03 07:45:36;;;;;;;23.95;12.38;;;;;;;9.37;57.67;99030.66;4880243;29;20041;-39
2021/12/03 07:48:02;;;;;;;28.05;13.15;;;;;;;10.22;53.56;99053.34;4877131;29;20033;-38
2021/12/03 07:50:27;;;;;;;53.65;24.88;;;;;;;9.28;54.20;99072.56;4877901;29;20040;-38
2021/12/03 07:52:53;;;;;;;25.70;12.98;;;;;;;8.08;57.47;99050.75;4877661;29;20449;-39
2021/12/03 07:55:19;;;;;;;20.52;11.88;;;;;;;7.87;58.82;99068.47;4879052;29;20122;-39
2021/12/03 07:57:44;;;;;;;19.23;11.00;;;;;;;7.60;58.83;99052.53;4880976;29;20032;-38
2021/12/03 08:00:10;;;;;;;21.58;11.32;;;;;;;7.17;60.44;99044.06;4877497;29;20096;-39
2021/12/03 08:02:36;;;;;;;22.92;12.85;;;;;;;7.31;60.68;99066.94;4893914;29;20047;-38
2021/12/03 08:05:01;;;;;;;19.50;10.82;;;;;;;7.62;60.33;99079.63;4895637;29;20426;-38
2021/12/03 08:07:27;;;;;;;21.42;10.55;;;;;;;7.22;61.26;99071.56;4895466;29;20055;-39
2021/12/03 08:09:53;;;;;;;17.25;10.10;;;;;;;7.43;61.05;99065.34;4895234;29;20040;-39
2021/12/03 08:12:18;;;;;;;20.48;11.30;;;;;;;7.89;58.97;99039.94;4895256;29;20454;-39
2021/12/03 08:14:44;;;;;;;22.73;11.20;;;;;;;7.80;58.90;99041.16;4877003;29;20110;-39
2021/12/03 08:17:09;;;;;;;24.35;11.40;;;;;;;7.73;59.98;99067.66;4893730;29;20469;-38
2021/12/03 08:19:35;;;;;;;19.92;11.27;;;;;;;7.72;60.13;99062.53;4895504;29;20507;-40
2021/12/03 08:22:01;;;;;;;24.75;12.65;;;;;;;8.24;58.42;99058.28;4895853;29;20066;-39
2021/12/03 08:24:26;;;;;;;23.73;11.68;;;;;;;8.54;58.28;99044.63;4878778;29;20032;-39
2021/12/03 08:26:52;;;;;;;20.02;11.10;;;;;;;9.00;56.90;99044.50;4895511;29;20036;-39
2021/12/03 08:29:17;;;;;;;20.42;11.73;;;;;;;9.54;55.57;99053.00;4895759;29;20032;-40
2021/12/03 08:31:43;;;;;;;17.80;11.82;;;;;;;10.44;53.12;99048.47;4895547;29;20036;-39
2021/12/03 08:34:08;;;;;;;18.77;11.50;;;;;;;10.34;53.11;99062.28;4895828;29;20036;-39
2021/12/03 08:36:34;;;;;;;19.33;12.23;;;;;;;10.54;53.78;99041.59;4894090;29;20115;-39
2021/12/03 08:38:59;;;;;;;20.17;12.90;;;;;;;10.42;53.58;99038.06;4877005;29;20037;-39
2021/12/03 08:41:25;;;;;;;33.03;17.00;;;;;;;10.73;52.42;99047.75;4893522;29;20032;-39
2021/12/03 08:43:50;;;;;;;27.08;14.95;;;;;;;10.78;53.62;99033.81;4893979;29;20028;-38
2021/12/03 08:49:25;;;;;;;24.90;12.80;;;;;;;11.89;50.12;99042.38;4882475;29;20486;-38
2021/12/03 08:52:05;;;;;;;21.23;11.85;;;;;;;11.52;50.29;99021.19;4886198;29;20048;-39
2021/12/03 08:57:20;;;;;;;20.85;12.13;;;;;;;10.94;51.94;98993.25;4894489;29;20103;-51
2021/12/03 08:59:46;;;;;;;;;;;;;;;10.99;52.58;99018.41;4895163;29;20103;-49
2021/12/03 09:02:11;;;;;;;21.48;12.30;;;;;;;10.77;53.69;99000.22;4894988;29;20034;-53
2021/12/03 09:04:37;;;;;;;21.73;12.90;;;;;;;10.49;53.70;98990.09;4895044;29;20480;-51
2021/12/03 09:07:03;;;;;;;23.90;12.57;;;;;;;10.56;52.71;98990.84;4894382;29;20039;-52
2021/12/03 09:09:29;;;;;;;21.40;12.63;;;;;;;10.30;54.53;98983.91;4894493;29;20028;-49
2021/12/03 09:11:55;;;;;;;24.35;12.75;;;;;;;10.05;55.89;98984.78;4894689;29;20029;-51
2021/12/03 09:17:30;;;;;;;27.50;12.88;;;;;;;10.22;54.83;98992.19;4895258;29;20378;-51
2021/12/03 09:22:45;;;;;;;21.55;12.30;;;;;;;9.56;56.64;98971.28;4894510;29;20032;-50
2021/12/03 09:25:15;;;;;;;24.50;12.48;;;;;;;9.88;56.10;98973.88;4894233;29;20033;-50
2021/12/03 09:27:40;;;;;;;22.42;12.55;;;;;;;10.51;55.10;98980.06;4876346;29;20032;-49
2021/12/03 09:30:07;;;;;;;23.20;13.13;;;;;;;10.62;54.72;98971.31;4894120;29;20025;-53
2021/12/03 09:32:33;;;;;;;20.88;11.70;;;;;;;9.96;56.22;98976.25;4898460;29;20029;-51
2021/12/03 09:35:00;;;;;;;25.40;12.95;;;;;;;9.89;56.64;98980.81;4897944;29;20414;-50
2021/12/03 09:37:25;;;;;;;22.52;12.05;;;;;;;10.01;56.35;98972.94;4898202;29;20127;-56
2021/12/03 09:39:51;;;;;;;21.38;12.48;;;;;;;10.06;56.18;98986.41;4898212;29;20028;-49
2021/12/03 09:42:21;;;;;;;19.55;11.77;;;;;;;10.43;55.38;98975.03;4898245;29;20029;-54
2021/12/03 09:44:49;;;;;;;20.77;12.07;;;;;;;10.69;53.88;98977.38;4898349;29;20028;-51
2021/12/03 09:47:17;;;;;;;22.85;12.23;;;;;;;10.39;55.24;98969.34;4882762;29;20405;-53
2021/12/03 09:49:43;;;;;;;27.80;13.13;;;;;;;10.38;55.22;98954.44;4897917;29;20108;-52
2021/12/03 09:55:02;;;;;;;24.88;12.63;;;;;;;10.82;54.90;98957.00;4897572;29;20113;-51
2021/12/03 09:57:34;;;;;;;25.02;12.40;;;;;;;11.25;53.11;98974.63;4897998;29;20025;-50
2021/12/03 10:02:55;;;;;;;24.25;12.10;;;;;;;11.03;54.59;98982.31;4897760;29;20075;-51
2021/12/03 10:13:02;;;;;;;26.10;13.68;;;;;;;11.72;52.55;98962.22;4881257;29;20433;-51
2021/12/03 10:15:40;;;;;;;25.15;13.48;;;;;;;11.29;53.06;98965.97;4897717;29;20040;-50
2021/12/03 10:29:08;;;;;;;30.35;12.95;;;;;;;11.82;52.41;98943.03;4896732;29;20183;-52
2021/12/03 10:42:27;;;;;;;25.63;15.45;;;;;;;11.74;53.54;98914.03;4897273;29;20481;-53
2021/12/03 14:53:53;;;;;;;60.90;30.55;;;;;;;10.37;64.14;98868.47;4897003;29;20036;-38
2021/12/03 14:56:23;;;;;;;65.45;30.95;;;;;;;10.10;64.65;98841.38;4897058;29;20033;-39
2021/12/03 14:59:10;;;;;;;59.20;30.45;;;;;;;10.32;64.44;98836.44;4896869;29;20037;-39
2021/12/03 15:01:51;;;;;;;59.97;30.27;;;;;;;10.05;64.58;98861.69;4896943;29;20132;-39
2021/12/03 15:07:11;;;;;;;70.72;34.33;;;;;;;9.82;66.74;98831.25;4897072;29;20391;-38
2021/12/03 15:09:42;;;;;;;62.60;33.20;;;;;;;9.92;65.49;98836.06;4896443;29;20040;-39
2021/12/03 15:20:43;;;;;;;81.90;36.50;;;;;;;9.69;66.84;98861.44;4895705;29;20092;-38
2021/12/03 15:34:38;;;;;;;76.82;36.67;;;;;;;9.81;66.60;98855.41;4896199;29;20010;-39
2021/12/03 15:39:43;;;;;;;156.27;67.40;;;;;;;9.57;67.84;98897.69;4877396;29;20108;-39
2021/12/03 16:04:01;;;;;;;90.50;44.80;;;;;;;9.43;68.05;98898.84;4895017;29;20499;-39
2021/12/03 16:06:29;;;;;;;87.75;44.30;;;;;;;9.47;68.50;98900.03;4881626;29;20028;-39
2021/12/03 16:09:03;;;;;;;102.05;46.15;;;;;;;9.31;69.12;98907.50;4895640;29;20100;-39
2021/12/03 16:14:14;;;;;;;91.13;44.60;;;;;;;9.33;68.40;98921.38;4876658;29;20502;-39
2021/12/03 16:22:14;;;;;;;94.72;46.78;;;;;;;9.03;70.16;98912.41;4876847;29;20032;-39
2021/12/03 16:43:41;;;;;;;80.72;39.72;;;;;;;9.03;70.16;98915.88;4893725;29;20404;-39
2021/12/03 16:51:51;;;;;;;81.32;43.20;;;;;;;9.82;66.46;98926.91;4880094;29;20484;-40
2021/12/03 16:54:24;;;;;;;109.80;52.28;;;;;;;9.38;70.11;98916.22;4893627;29;20175;-39
2021/12/03 16:56:52;;;;;;;106.28;51.28;;;;;;;9.17;69.27;98911.28;4893939;29;20380;-39
2021/12/03 16:59:18;;;;;;;99.60;51.05;;;;;;;8.98;70.44;98905.06;4893821;29;20049;-40
2021/12/03 17:01:52;;;;;;;122.28;55.08;;;;;;;9.04;70.02;98903.41;4893428;29;20063;-39
2021/12/03 17:12:29;;;;;;;112.10;52.90;;;;;;;8.82;71.44;98921.50;4894371;29;20040;-38
2021/12/03 17:56:54;;;;;;;94.57;43.60;;;;;;;9.02;70.50;98950.56;4879158;29;20044;-38
2021/12/03 17:59:24;;;;;;;81.47;39.50;;;;;;;9.08;70.17;98947.06;4879284;29;20025;-38
2021/12/03 18:02:04;;;;;;;73.15;35.38;;;;;;;8.99;69.77;98938.56;4879163;29;20099;-39
2021/12/03 18:07:22;;;;;;;91.47;43.35;;;;;;;8.67;71.48;98935.84;4891644;29;20272;-39
2021/12/03 18:10:03;;;;;;;93.88;47.05;;;;;;;8.62;72.38;98938.31;4881719;29;20112;-38
2021/12/03 18:13:02;;;;;;;102.40;48.83;;;;;;;8.48;72.70;98953.44;4897855;29;20517;-39
2021/12/03 18:45:22;;;;;;;89.18;46.10;;;;;;;9.33;70.12;98942.63;4897056;29;20508;-53
2021/12/03 18:55:40;;;;;;;100.10;50.88;;;;;;;9.03;72.35;98950.38;4896588;29;20056;-53
2021/12/03 18:58:06;;;;;;;125.60;59.75;;;;;;;9.60;69.92;98939.78;4896187;29;20040;-53
2021/12/03 19:00:37;;;;;;;101.15;49.35;;;;;;;9.51;69.72;98952.50;4875332;29;20024;-52
2021/12/03 19:06:01;;;;;;;115.22;58.85;;;;;;;9.17;70.72;98951.09;4888174;29;20129;-38
2021/12/03 19:11:23;;;;;;;112.85;58.78;;;;;;;8.97;71.81;98941.41;4889744;29;20090;-39
2021/12/03 19:13:50;;;;;;;192.38;109.88;;;;;;;8.87;72.08;98945.53;4885526;29;20048;-38
2021/12/03 19:16:17;;;;;;;192.23;107.35;;;;;;;8.80;72.83;98946.41;4886506;29;20221;-38